createdAt,value
2023-04-05T00:01:37.784Z,-0.50
2023-04-05T00:04:08.781Z,-0.50
2023-04-05T00:06:40.120Z,-0.60
2023-04-05T00:09:08.935Z,-0.60
2023-04-05T00:11:37.513Z,-0.70
2023-04-05T00:14:06.172Z,-0.80
2023-04-05T00:16:36.847Z,-0.80
2023-04-05T00:19:06.039Z,-0.80
2023-04-05T00:21:37.301Z,-0.90
2023-04-05T00:24:06.459Z,-0.90
2023-04-05T00:26:36.606Z,-0.90
2023-04-05T00:29:05.263Z,-0.90
2023-04-05T00:31:33.996Z,-0.90
2023-04-05T00:34:02.625Z,-0.90
2023-04-05T00:36:31.298Z,-0.90
2023-04-05T00:39:01.379Z,-0.90
2023-04-05T00:41:29.969Z,-0.90
2023-04-05T00:44:00.087Z,-0.90
2023-04-05T00:46:29.994Z,-0.90
2023-04-05T00:48:58.746Z,-0.80
2023-04-05T00:51:27.537Z,-0.80
2023-04-05T00:53:57.252Z,-0.80
2023-04-05T00:56:28.432Z,-0.90
2023-04-05T00:58:57.065Z,-0.90
2023-04-05T01:01:28.080Z,-0.90
2023-04-05T01:04:03.446Z,-0.90
2023-04-05T01:06:47.728Z,-0.90
2023-04-05T01:09:26.560Z,-0.90
2023-04-05T01:12:00.546Z,-0.90
2023-04-05T01:14:29.347Z,-0.90
2023-04-05T01:16:59.413Z,-1.00
2023-04-05T01:19:31.700Z,-1.10
2023-04-05T01:22:56.283Z,-1.10
2023-04-05T01:26:00.441Z,-1.10
2023-04-05T01:29:12.424Z,-1.00
2023-04-05T01:31:50.620Z,-0.90
2023-04-05T01:34:28.463Z,-0.90
2023-04-05T01:36:59.843Z,-0.90
2023-04-05T01:39:30.452Z,-1.00
2023-04-05T01:42:02.223Z,-1.10
2023-04-05T01:44:32.012Z,-1.10
2023-04-05T01:47:02.567Z,-1.00
2023-04-05T01:49:32.811Z,-1.10
2023-04-05T01:52:02.433Z,-1.20
2023-04-05T01:54:31.532Z,-1.20
2023-04-05T01:57:00.829Z,-1.30
2023-04-05T01:59:30.837Z,-1.40
2023-04-05T02:02:03.322Z,-1.40
2023-04-05T02:04:32.344Z,-1.50
2023-04-05T02:07:01.655Z,-1.60
2023-04-05T02:09:30.802Z,-1.60
2023-04-05T02:12:00.169Z,-1.70
2023-04-05T02:14:29.165Z,-1.70
2023-04-05T02:16:59.006Z,-1.70
2023-04-05T02:19:37.943Z,-1.70
2023-04-05T02:22:09.619Z,-1.70
2023-04-05T02:24:38.604Z,-1.70
2023-04-05T02:27:07.807Z,-1.70
2023-04-05T02:29:37.451Z,-1.70
2023-04-05T02:32:07.490Z,-1.70
2023-04-05T02:34:41.574Z,-1.60
2023-04-05T02:37:11.375Z,-1.60
2023-04-05T02:39:42.842Z,-1.60
2023-04-05T02:42:14.409Z,-1.60
2023-04-05T02:44:47.107Z,-1.70
2023-04-05T02:47:26.686Z,-1.70
2023-04-05T02:50:01.300Z,-1.70
2023-04-05T02:52:37.824Z,-1.80
2023-04-05T02:55:08.994Z,-1.80
2023-04-05T02:57:38.401Z,-1.80
2023-04-05T03:00:22.567Z,-1.80
2023-04-05T03:02:52.046Z,-1.90
2023-04-05T03:05:22.809Z,-1.90
2023-04-05T03:07:54.926Z,-1.90
2023-04-05T03:10:32.923Z,-1.90
2023-04-05T03:13:06.795Z,-2.00
2023-04-05T03:15:38.402Z,-2.00
2023-04-05T03:18:12.869Z,-2.10
2023-04-05T03:20:46.013Z,-2.10
2023-04-05T03:23:20.104Z,-2.10
2023-04-05T03:25:54.741Z,-2.20
2023-04-05T03:28:25.770Z,-2.10
2023-04-05T03:30:58.185Z,-2.10
2023-04-05T03:33:26.799Z,-2.20
2023-04-05T03:35:57.048Z,-2.20
2023-04-05T03:38:25.752Z,-2.10
2023-04-05T03:41:07.191Z,-2.20
2023-04-05T03:43:38.070Z,-2.20
2023-04-05T03:46:07.802Z,-2.20
2023-04-05T03:48:36.419Z,-2.30
2023-04-05T03:51:08.167Z,-2.30
2023-04-05T03:53:36.789Z,-2.40
2023-04-05T03:56:06.688Z,-2.40
2023-04-05T03:58:43.834Z,-2.40
2023-04-05T04:01:14.313Z,-2.40
2023-04-05T04:03:43.265Z,-2.30
2023-04-05T04:06:13.755Z,-2.30
2023-04-05T04:08:43.579Z,-2.20
2023-04-05T04:11:12.146Z,-2.30
2023-04-05T04:13:42.573Z,-2.20
2023-04-05T04:16:30.533Z,-2.40
2023-04-05T04:19:06.724Z,-2.40
2023-04-05T04:22:10.332Z,-2.50
2023-04-05T04:25:10.864Z,-2.60
2023-04-05T04:28:06.922Z,-2.60
2023-04-05T04:31:10.505Z,-2.70
2023-04-05T04:33:54.057Z,-2.70
2023-04-05T04:36:48.621Z,-2.70
2023-04-05T04:39:27.344Z,-2.70
2023-04-05T04:42:13.696Z,-2.80
2023-04-05T04:45:08.353Z,-2.60
2023-04-05T04:47:56.532Z,-2.60
2023-04-05T04:50:53.387Z,-2.70
2023-04-05T04:53:24.355Z,-2.70
2023-04-05T04:55:56.667Z,-2.60
2023-04-05T04:58:25.824Z,-2.50
2023-04-05T05:01:08.999Z,-2.40
2023-04-05T05:03:38.910Z,-2.40
2023-04-05T05:06:08.514Z,-2.50
2023-04-05T05:08:38.798Z,-2.50
2023-04-05T05:11:10.074Z,-2.60
2023-04-05T05:13:38.682Z,-2.60
2023-04-05T05:16:09.971Z,-2.60
2023-04-05T05:18:40.662Z,-2.60
2023-04-05T05:21:09.307Z,-2.60
2023-04-05T05:23:38.126Z,-2.60
2023-04-05T05:26:06.946Z,-2.60
2023-04-05T05:28:39.008Z,-2.50
2023-04-05T05:31:07.970Z,-2.40
2023-04-05T05:33:38.542Z,-2.20
2023-04-05T05:36:08.082Z,-2.20
2023-04-05T05:38:36.878Z,-2.10
2023-04-05T05:41:05.909Z,-2.00
2023-04-05T05:43:34.593Z,-2.00
2023-04-05T05:46:04.601Z,-2.00
2023-04-05T05:48:33.444Z,-1.90
2023-04-05T05:51:09.701Z,-1.80
2023-04-05T05:53:39.063Z,-1.80
2023-04-05T05:56:08.303Z,-1.70
2023-04-05T05:58:37.356Z,-1.70
2023-04-05T06:01:08.087Z,-1.50
2023-04-05T06:03:37.388Z,-1.40
2023-04-05T06:06:11.414Z,-1.40
2023-04-05T06:08:40.241Z,-1.30
2023-04-05T06:11:08.878Z,-1.10
2023-04-05T06:13:38.146Z,-1.00
2023-04-05T06:16:08.609Z,-0.90
2023-04-05T06:18:37.400Z,-0.80
2023-04-05T06:21:06.477Z,-0.70
2023-04-05T06:23:35.140Z,-0.50
2023-04-05T06:26:05.398Z,-0.40
2023-04-05T06:28:34.303Z,-0.20
2023-04-05T06:31:03.473Z,0.00
2023-04-05T06:33:33.794Z,0.10
2023-04-05T06:36:02.737Z,0.30
2023-04-05T06:38:31.505Z,0.40
2023-04-05T06:41:00.484Z,0.60
2023-04-05T06:43:29.373Z,0.80
2023-04-05T06:45:58.563Z,0.90
2023-04-05T06:48:28.705Z,1.20
2023-04-05T06:51:03.809Z,1.50
2023-04-05T06:53:32.811Z,1.70
2023-04-05T06:56:01.705Z,1.90
2023-04-05T06:58:30.567Z,2.10
2023-04-05T07:00:59.312Z,2.40
2023-04-05T07:03:28.147Z,2.60
2023-04-05T07:05:59.479Z,2.70
2023-04-05T07:08:33.601Z,2.80
2023-04-05T07:11:02.791Z,3.00
2023-04-05T07:13:31.557Z,3.10
2023-04-05T07:16:04.508Z,3.30
2023-04-05T07:18:33.276Z,3.60
2023-04-05T07:21:02.169Z,3.70
2023-04-05T07:23:32.998Z,3.90
2023-04-05T07:26:05.027Z,4.20
2023-04-05T07:28:36.108Z,4.40
2023-04-05T07:31:05.943Z,4.60
2023-04-05T07:33:34.742Z,4.70
2023-04-05T07:36:04.995Z,4.90
2023-04-05T07:38:35.587Z,4.90
2023-04-05T07:41:04.095Z,5.00
2023-04-05T07:43:32.779Z,5.10
2023-04-05T07:46:08.110Z,5.20
2023-04-05T07:48:37.444Z,5.30
2023-04-05T07:51:08.543Z,5.40
2023-04-05T07:53:39.218Z,5.50
2023-04-05T07:56:09.969Z,5.60
2023-04-05T07:58:40.685Z,5.70
2023-04-05T08:01:11.372Z,5.70
2023-04-05T08:03:41.082Z,5.80
2023-04-05T08:06:15.134Z,5.90
2023-04-05T08:08:45.632Z,5.90
2023-04-05T08:11:14.689Z,6.00
2023-04-05T08:13:44.001Z,6.00
2023-04-05T08:16:13.088Z,6.10
2023-04-05T08:18:41.806Z,6.20
2023-04-05T08:21:10.333Z,6.30
2023-04-05T08:23:39.292Z,6.40
2023-04-05T08:26:09.592Z,6.40
2023-04-05T08:28:40.225Z,6.50
2023-04-05T08:31:10.811Z,6.80
2023-04-05T08:33:40.890Z,6.90
2023-04-05T08:36:11.716Z,7.10
2023-04-05T08:38:40.652Z,7.20
2023-04-05T08:41:19.018Z,7.10
2023-04-05T08:43:58.013Z,7.20
2023-04-05T08:46:27.450Z,7.30
2023-04-05T08:48:56.449Z,7.40
2023-04-05T08:51:27.072Z,7.40
2023-04-05T08:53:56.323Z,7.50
2023-04-05T08:56:32.846Z,7.60
2023-04-05T08:59:04.957Z,7.60
2023-04-05T09:01:39.253Z,7.70
2023-04-05T09:04:12.946Z,7.70
2023-04-05T09:06:41.809Z,7.70
2023-04-05T09:09:10.960Z,7.90
2023-04-05T09:11:42.008Z,8.10
2023-04-05T09:14:11.826Z,8.40
2023-04-05T09:16:42.239Z,8.50
2023-04-05T09:19:11.973Z,8.50
2023-04-05T09:21:59.366Z,8.60
2023-04-05T09:24:37.076Z,8.60
2023-04-05T09:27:08.874Z,8.80
2023-04-05T09:29:38.668Z,8.80
2023-04-05T09:32:10.187Z,8.90
2023-04-05T09:34:39.642Z,9.30
2023-04-05T09:37:16.445Z,9.40
2023-04-05T09:39:46.007Z,9.50
2023-04-05T09:42:17.555Z,9.60
2023-04-05T09:44:57.283Z,9.60
2023-04-05T09:47:31.372Z,9.60
2023-04-05T09:50:06.569Z,9.70
2023-04-05T09:52:36.909Z,9.80
2023-04-05T09:55:07.268Z,9.90
2023-04-05T09:57:39.303Z,10.00
2023-04-05T10:00:20.391Z,10.00
2023-04-05T10:02:53.748Z,10.40
2023-04-05T10:05:26.296Z,11.10
2023-04-05T10:07:56.964Z,11.80
2023-04-05T10:10:26.484Z,12.20
2023-04-05T10:12:57.015Z,12.80
2023-04-05T10:15:28.224Z,13.30
2023-04-05T10:18:05.801Z,13.80
2023-04-05T10:20:40.959Z,14.00
2023-04-05T10:23:14.333Z,13.90
2023-04-05T10:25:59.428Z,14.30
2023-04-05T10:28:33.044Z,14.60
2023-04-05T10:31:16.850Z,15.20
2023-04-05T10:33:58.760Z,14.80
2023-04-05T10:36:38.362Z,15.20
2023-04-05T10:39:14.752Z,15.10
2023-04-05T10:41:48.935Z,15.30
2023-04-05T10:44:27.075Z,15.20
2023-04-05T10:47:01.943Z,15.20
2023-04-05T10:49:44.124Z,14.50
2023-04-05T10:52:12.973Z,14.80
2023-04-05T10:54:42.422Z,15.30
2023-04-05T10:57:12.100Z,15.70
2023-04-05T10:59:46.278Z,15.50
2023-04-05T11:02:16.534Z,15.60
2023-04-05T11:04:45.817Z,15.10
2023-04-05T11:07:16.387Z,15.90
2023-04-05T11:09:56.618Z,16.50
2023-04-05T11:13:02.788Z,17.10
2023-04-05T11:15:34.982Z,17.40
2023-04-05T11:18:10.843Z,17.60
2023-04-05T11:20:52.194Z,17.40
2023-04-05T11:23:22.725Z,17.40
2023-04-05T11:25:58.071Z,17.60
2023-04-05T11:28:37.820Z,17.40
2023-04-05T11:31:17.023Z,17.30
2023-04-05T11:34:10.423Z,17.90
2023-04-05T11:37:03.335Z,17.70
2023-04-05T11:39:32.486Z,17.60
2023-04-05T11:42:12.620Z,17.60
2023-04-05T11:44:46.919Z,17.50
2023-04-05T11:47:21.528Z,17.50
2023-04-05T11:49:52.529Z,17.40
2023-04-05T11:52:23.565Z,17.40
2023-04-05T11:54:52.349Z,17.50
2023-04-05T11:57:23.299Z,17.80
2023-04-05T11:59:53.538Z,16.80
2023-04-05T12:02:24.653Z,16.60
2023-04-05T12:04:57.805Z,17.90
2023-04-05T12:07:29.250Z,18.40
2023-04-05T12:10:03.682Z,18.40
2023-04-05T12:12:37.382Z,16.60
2023-04-05T12:15:09.251Z,16.90
2023-04-05T12:17:47.769Z,18.00
2023-04-05T12:23:55.874Z,20.40
2023-04-05T12:26:24.739Z,21.20
2023-04-05T12:28:54.459Z,21.60
2023-04-05T12:31:41.717Z,22.10
2023-04-05T12:34:15.264Z,22.40
2023-04-05T12:36:46.825Z,22.20
2023-04-05T12:39:18.313Z,22.40
2023-04-05T12:41:59.263Z,21.70
2023-04-05T12:44:32.033Z,21.60
2023-04-05T12:47:11.381Z,21.40
2023-04-05T12:49:47.687Z,20.80
2023-04-05T12:52:23.158Z,20.60
2023-04-05T12:54:56.486Z,20.80
2023-04-05T12:57:32.796Z,20.70
2023-04-05T13:00:07.067Z,21.30
2023-04-05T13:02:38.288Z,22.20
2023-04-05T13:05:09.810Z,22.40
2023-04-05T13:07:39.404Z,22.80
2023-04-05T13:10:10.981Z,23.30
2023-04-05T13:12:40.486Z,23.40
2023-04-05T13:15:11.156Z,23.10
2023-04-05T13:17:40.548Z,22.80
2023-04-05T13:20:12.073Z,23.20
2023-04-05T13:22:41.803Z,22.80
2023-04-05T13:25:12.075Z,21.90
2023-04-05T13:27:46.125Z,22.90
2023-04-05T13:30:15.865Z,23.10
2023-04-05T13:32:45.139Z,23.60
2023-04-05T13:35:15.508Z,24.00
2023-04-05T13:37:44.719Z,24.70
2023-04-05T13:40:14.100Z,24.30
2023-04-05T13:42:43.631Z,24.80
2023-04-05T13:45:13.466Z,24.60
2023-04-05T13:48:03.609Z,24.70
2023-04-05T13:50:34.529Z,24.60
2023-04-05T13:53:04.035Z,24.80
2023-04-05T13:55:33.104Z,24.00
2023-04-05T13:58:05.593Z,22.80
2023-04-05T14:00:36.485Z,23.40
2023-04-05T14:03:05.295Z,23.80
2023-04-05T14:05:36.469Z,24.40
2023-04-05T14:08:05.931Z,24.80
2023-04-05T14:10:48.335Z,24.80
2023-04-05T14:13:17.852Z,25.30
2023-04-05T14:15:47.080Z,24.20
2023-04-05T14:18:15.969Z,24.30
2023-04-05T14:20:46.386Z,25.20
2023-04-05T14:23:15.619Z,24.40
2023-04-05T14:25:44.535Z,23.60
2023-04-05T14:28:13.500Z,24.30
2023-04-05T14:30:43.345Z,25.10
2023-04-05T14:33:18.728Z,25.10
2023-04-05T14:35:49.198Z,25.00
2023-04-05T14:38:48.210Z,25.80
2023-04-05T14:41:19.713Z,25.70
2023-04-05T14:43:51.768Z,25.70
2023-04-05T14:46:24.250Z,26.10
2023-04-05T14:48:54.256Z,26.40
2023-04-05T14:51:25.040Z,24.60
2023-04-05T14:53:55.940Z,25.10
2023-04-05T14:56:26.192Z,23.70
2023-04-05T14:58:55.345Z,24.40
2023-04-05T15:01:24.591Z,25.30
2023-04-05T15:03:57.455Z,25.70
2023-04-05T15:06:28.994Z,25.80
2023-04-05T15:08:58.312Z,25.50
2023-04-05T15:11:29.610Z,24.60
2023-04-05T15:13:59.323Z,25.10
2023-04-05T15:16:29.935Z,25.30
2023-04-05T15:19:04.918Z,24.80
2023-04-05T15:21:36.080Z,22.90
2023-04-05T15:24:05.146Z,22.60
2023-04-05T15:26:34.151Z,23.30
2023-04-05T15:29:02.886Z,22.90
2023-04-05T15:31:35.673Z,23.00
2023-04-05T15:34:06.372Z,22.10
2023-04-05T15:36:38.304Z,22.70
2023-04-05T15:39:07.532Z,22.20
2023-04-05T15:42:24.702Z,22.40
2023-04-05T15:44:58.044Z,23.70
2023-04-05T15:47:27.429Z,24.20
2023-04-05T15:49:56.465Z,24.10
2023-04-05T15:52:27.121Z,23.90
2023-04-05T15:55:31.030Z,23.60
2023-04-05T15:59:39.453Z,22.90
2023-04-05T16:02:34.239Z,22.30
2023-04-05T16:05:56.486Z,22.90
2023-04-05T16:08:27.237Z,22.90
2023-04-05T16:14:32.008Z,23.90
2023-04-05T16:18:31.508Z,21.90
2023-04-05T16:21:17.118Z,22.40
2023-04-05T16:24:11.582Z,22.90
2023-04-05T16:26:41.436Z,23.20
2023-04-05T16:29:10.409Z,23.60
2023-04-05T16:31:40.020Z,22.60
2023-04-05T16:34:08.926Z,21.50
2023-04-05T16:36:37.967Z,21.30
2023-04-05T16:39:07.886Z,21.30
2023-04-05T16:41:38.399Z,19.80
2023-04-05T16:44:07.368Z,18.70
2023-04-05T16:46:36.274Z,18.90
2023-04-05T16:49:05.581Z,18.80
2023-04-05T16:51:36.104Z,18.70
2023-04-05T16:54:05.327Z,18.10
2023-04-05T16:56:34.472Z,17.50
2023-04-05T16:59:07.187Z,17.60
2023-04-05T17:01:37.153Z,17.50
2023-04-05T17:04:08.940Z,17.80
2023-04-05T17:06:38.338Z,17.80
2023-04-05T17:09:07.712Z,17.30
2023-04-05T17:11:36.817Z,17.10
2023-04-05T17:14:07.927Z,17.20
2023-04-05T17:16:37.221Z,16.80
2023-04-05T17:19:06.592Z,16.20
2023-04-05T17:21:36.802Z,15.80
2023-04-05T17:24:06.023Z,15.70
2023-04-05T17:26:35.079Z,15.80
2023-04-05T17:29:04.135Z,14.80
2023-04-05T17:31:34.690Z,14.10
2023-04-05T17:34:04.043Z,13.70
2023-04-05T17:36:34.841Z,13.20
2023-04-05T17:39:04.155Z,12.90
2023-04-05T17:41:33.281Z,12.60
2023-04-05T17:44:02.214Z,12.50
2023-04-05T17:46:41.678Z,12.10
2023-04-05T17:49:17.091Z,11.90
2023-04-05T17:51:45.771Z,11.70
2023-04-05T17:54:15.663Z,11.50
2023-04-05T17:56:44.335Z,11.30
2023-04-05T17:59:13.239Z,11.10
2023-04-05T18:01:41.991Z,10.90
2023-04-05T18:04:15.451Z,10.80
2023-04-05T18:06:51.219Z,10.70
2023-04-05T18:09:23.799Z,10.60
2023-04-05T18:11:57.685Z,10.40
2023-04-05T18:14:30.854Z,10.30
2023-04-05T18:17:06.557Z,10.20
2023-04-05T18:19:54.749Z,10.00
2023-04-05T18:22:30.035Z,9.80
2023-04-05T18:25:12.073Z,9.60
2023-04-05T18:28:21.333Z,9.60
2023-04-05T18:31:00.505Z,9.40
2023-04-05T18:33:48.308Z,9.30
2023-04-05T18:36:44.537Z,9.00
2023-04-05T18:39:31.810Z,8.80
2023-04-05T18:42:09.216Z,8.70
2023-04-05T18:44:52.774Z,8.60
2023-04-05T18:48:13.328Z,8.50
2023-04-05T18:50:50.491Z,8.40
2023-04-05T18:56:18.469Z,8.30
2023-04-05T18:58:55.106Z,8.30
2023-04-05T19:01:56.669Z,8.30
2023-04-05T19:04:30.694Z,8.20
2023-04-05T19:07:41.956Z,8.10
2023-04-05T19:10:44.012Z,7.90
2023-04-05T19:13:30.685Z,7.80
2023-04-05T19:16:26.692Z,7.50
2023-04-05T19:18:59.040Z,7.50
2023-04-05T19:21:45.258Z,7.10
2023-04-05T19:24:39.013Z,7.10
2023-04-05T19:27:39.720Z,7.00
2023-04-05T19:34:00.380Z,6.10
2023-04-05T19:36:37.248Z,5.90
2023-04-05T19:39:11.966Z,5.60
2023-04-05T19:41:45.828Z,5.50
2023-04-05T19:45:05.711Z,5.30
2023-04-05T19:48:36.508Z,5.10
2023-04-05T19:51:42.564Z,5.00
2023-04-05T19:54:44.967Z,5.00
2023-04-05T19:57:27.130Z,4.80
2023-04-05T19:59:59.483Z,4.60
2023-04-05T20:02:43.096Z,4.50
2023-04-05T20:05:57.557Z,4.50
2023-04-05T20:09:12.077Z,4.50
2023-04-05T20:11:54.094Z,4.30
2023-04-05T20:14:42.488Z,4.20
2023-04-05T20:18:01.908Z,4.40
2023-04-05T20:21:22.679Z,4.20
2023-04-05T20:24:28.008Z,4.10
2023-04-05T20:27:02.504Z,4.00
2023-04-05T20:29:51.811Z,3.80
2023-04-05T20:32:34.840Z,3.60
2023-04-05T20:35:35.317Z,3.50
2023-04-05T20:38:13.745Z,3.30
2023-04-05T20:41:17.631Z,3.10
2023-04-05T20:44:03.063Z,3.00
2023-04-05T20:46:38.859Z,3.00
2023-04-05T20:49:12.276Z,2.90
2023-04-05T20:52:09.384Z,2.90
2023-04-05T20:54:46.346Z,2.80
2023-04-05T20:57:24.278Z,2.70
2023-04-05T20:59:55.780Z,2.70
2023-04-05T21:05:45.265Z,2.60
2023-04-05T21:08:24.994Z,2.50
2023-04-05T21:11:16.893Z,2.50
2023-04-05T21:17:26.481Z,2.40
2023-04-05T21:20:12.655Z,2.30
2023-04-05T21:23:09.165Z,2.30
2023-04-05T21:25:50.128Z,2.30
2023-04-05T21:28:23.792Z,2.20
2023-04-05T21:30:52.711Z,2.10
2023-04-05T21:33:21.943Z,2.10
2023-04-05T21:35:51.009Z,2.10
2023-04-05T21:38:20.123Z,2.10
2023-04-05T21:40:50.191Z,2.10
2023-04-05T21:43:19.256Z,2.10
2023-04-05T21:45:49.700Z,2.10
2023-04-05T21:48:18.383Z,2.00
2023-04-05T21:50:47.119Z,1.90
2023-04-05T21:53:15.939Z,1.90
2023-04-05T21:55:44.610Z,1.90
2023-04-05T21:58:13.552Z,1.80
2023-04-05T22:00:42.622Z,1.60
2023-04-05T22:03:13.021Z,1.50
2023-04-05T22:05:41.912Z,1.50
2023-04-05T22:08:11.055Z,1.50
2023-04-05T22:10:40.304Z,1.40
2023-04-05T22:13:09.226Z,1.40
2023-04-05T22:15:38.003Z,1.30
2023-04-05T22:18:06.955Z,1.30
2023-04-05T22:20:37.354Z,1.30
2023-04-05T22:23:06.609Z,1.20
2023-04-05T22:25:35.575Z,1.00
2023-04-05T22:28:04.272Z,1.00
2023-04-05T22:30:43.982Z,1.10
2023-04-05T22:33:14.066Z,1.10
2023-04-05T22:35:44.314Z,1.20
2023-04-05T22:38:13.215Z,1.10
2023-04-05T22:40:41.951Z,0.90
2023-04-05T22:43:11.920Z,0.90
2023-04-05T22:45:40.895Z,0.80
2023-04-05T22:48:09.706Z,0.70
2023-04-05T22:50:38.373Z,0.60
2023-04-05T22:53:08.771Z,0.60
2023-04-05T22:55:39.952Z,0.60
2023-04-05T22:58:08.843Z,0.50
2023-04-05T23:00:38.762Z,0.50
2023-04-05T23:03:07.727Z,0.40
2023-04-05T23:05:37.001Z,0.40
2023-04-05T23:08:07.355Z,0.40
2023-04-05T23:10:36.218Z,0.30
2023-04-05T23:13:04.815Z,0.20
2023-04-05T23:15:33.419Z,0.20
2023-04-05T23:18:02.553Z,0.10
2023-04-05T23:20:31.410Z,0.10
2023-04-05T23:23:00.263Z,0.00
2023-04-05T23:25:31.225Z,0.10
2023-04-05T23:27:59.960Z,0.00
2023-04-05T23:30:28.661Z,0.00
2023-04-05T23:32:57.637Z,0.00
2023-04-05T23:35:27.281Z,-0.10
2023-04-05T23:37:56.036Z,0.00
2023-04-05T23:40:24.628Z,-0.10
2023-04-05T23:42:54.898Z,-0.10
2023-04-05T23:45:24.888Z,-0.20
2023-04-05T23:47:55.502Z,-0.20
2023-04-05T23:50:24.724Z,-0.30
2023-04-05T23:52:53.498Z,-0.30
2023-04-05T23:55:22.369Z,-0.20
2023-04-05T23:57:52.267Z,-0.30
